Time;durP1;ratioP1;P1;durP2;ratioP2;P2;SDS_P1;SDS_P2;PMS_P1;PMS_P2;Temp;Humidity;BMP_temperature;BMP_pressure;BME280_temperature;BME280_humidity;BME280_pressure;Samples;Min_cycle;Max_cycle;Signal;HPM_P1;HPM_P2
2022/05/29 00:00:30;;;;;;;7.85;4.03;;;;;;;;;;2072846;28;20537;-53
2022/05/29 00:01:30;;;;;;;7.65;4.07;;;;;;;;;;2073048;28;20172;-55
2022/05/29 00:02:31;;;;;;;10.73;5.40;;;;;;;;;;2073457;28;20169;-54
2022/05/29 00:03:31;;;;;;;7.50;3.90;;;;;;;;;;2073493;28;20176;-57
2022/05/29 00:04:31;;;;;;;8.80;4.05;;;;;;;;;;2072259;28;20522;-58
2022/05/29 00:05:32;;;;;;;14.05;4.07;;;;;;;;;;2073713;28;20665;-52
2022/05/29 00:06:36;;;;;;;9.20;4.18;;;;;;;;;;2073634;28;20168;-54
2022/05/29 00:07:37;;;;;;;9.38;4.18;;;;;;;;;;2073367;28;20181;-55
2022/05/29 00:08:38;;;;;;;10.05;3.85;;;;;;;;;;2073524;28;20189;-57
2022/05/29 00:09:40;;;;;;;6.88;4.22;;;;;;;;;;2072955;28;20181;-50
2022/05/29 00:10:41;;;;;;;7.82;4.22;;;;;;;;;;2073518;28;20199;-51
2022/05/29 00:11:41;;;;;;;9.38;4.82;;;;;;;;;;2072958;28;20169;-52
2022/05/29 00:12:43;;;;;;;5.75;3.72;;;;;;;;;;2072606;28;20550;-54
2022/05/29 00:13:44;;;;;;;10.00;4.72;;;;;;;;;;2072672;28;20589;-52
2022/05/29 00:14:45;;;;;;;8.10;3.72;;;;;;;;;;2071746;28;20164;-53
2022/05/29 00:15:45;;;;;;;10.60;4.00;;;;;;;;;;2073585;28;20214;-50
2022/05/29 00:16:45;;;;;;;7.03;3.60;;;;;;;;;;2072849;28;20258;-51
2022/05/29 00:17:46;;;;;;;9.93;4.60;;;;;;;;;;2073127;28;20211;-56
2022/05/29 00:18:46;;;;;;;9.55;4.20;;;;;;;;;;2073041;28;20228;-55
2022/05/29 00:19:47;;;;;;;10.50;4.55;;;;;;;;;;2073446;28;20196;-56
2022/05/29 00:20:49;;;;;;;10.82;4.00;;;;;;;;;;2073426;28;20264;-57
2022/05/29 00:21:50;;;;;;;8.95;4.30;;;;;;;;;;2073426;28;20664;-54
2022/05/29 00:22:50;;;;;;;7.63;4.10;;;;;;;;;;2073202;28;20181;-55
2022/05/29 00:23:50;;;;;;;9.40;4.25;;;;;;;;;;2073394;28;20219;-55
2022/05/29 00:24:51;;;;;;;7.38;3.92;;;;;;;;;;2072610;28;20164;-55
2022/05/29 00:25:52;;;;;;;9.98;4.40;;;;;;;;;;2073546;28;20168;-56
2022/05/29 00:26:53;;;;;;;7.13;3.72;;;;;;;;;;2072825;28;20298;-55
2022/05/29 00:27:53;;;;;;;10.32;4.28;;;;;;;;;;2072301;28;20212;-55
2022/05/29 00:28:54;;;;;;;9.50;4.35;;;;;;;;;;2072668;28;20627;-56
2022/05/29 00:29:54;;;;;;;7.78;4.03;;;;;;;;;;2072570;28;20610;-52
2022/05/29 00:30:54;;;;;;;7.10;4.95;;;;;;;;;;2072894;28;20543;-54
2022/05/29 00:31:54;;;;;;;6.40;3.85;;;;;;;;;;2072951;28;20626;-57
2022/05/29 00:32:55;;;;;;;8.75;3.90;;;;;;;;;;2072345;28;20232;-57
2022/05/29 00:33:55;;;;;;;5.05;3.83;;;;;;;;;;2072358;28;20561;-60
2022/05/29 00:34:55;;;;;;;10.45;3.95;;;;;;;;;;2072900;28;20626;-54
2022/05/29 00:35:56;;;;;;;12.65;4.20;;;;;;;;;;2073075;28;20165;-58
2022/05/29 00:36:58;;;;;;;9.07;4.50;;;;;;;;;;2073387;28;20235;-54
2022/05/29 00:37:59;;;;;;;6.05;3.75;;;;;;;;;;2073369;28;20161;-56
2022/05/29 00:39:00;;;;;;;8.80;4.80;;;;;;;;;;2073435;28;20243;-56
2022/05/29 00:40:01;;;;;;;11.93;5.05;;;;;;;;;;2072812;28;20223;-57
2022/05/29 00:41:10;;;;;;;8.20;4.03;;;;;;;;;;2073548;28;20169;-55
2022/05/29 00:42:12;;;;;;;9.20;4.38;;;;;;;;;;2073257;28;20190;-56
2022/05/29 00:43:12;;;;;;;6.57;4.55;;;;;;;;;;2073372;28;20192;-53
2022/05/29 00:44:12;;;;;;;10.68;4.63;;;;;;;;;;2071687;28;20179;-55
2022/05/29 00:45:16;;;;;;;10.98;5.43;;;;;;;;;;2072579;28;20183;-56
2022/05/29 00:46:17;;;;;;;8.85;4.97;;;;;;;;;;2073172;28;20177;-52
2022/05/29 00:47:18;;;;;;;10.73;4.70;;;;;;;;;;2073272;28;20200;-55
2022/05/29 00:48:19;;;;;;;9.35;4.93;;;;;;;;;;2073213;28;20169;-55
2022/05/29 00:49:25;;;;;;;7.00;4.55;;;;;;;;;;2073337;28;20258;-57
2022/05/29 00:50:25;;;;;;;9.65;4.75;;;;;;;;;;2077579;28;20200;-59
2022/05/29 00:51:26;;;;;;;6.55;4.20;;;;;;;;;;2073227;28;20533;-53
2022/05/29 00:52:28;;;;;;;10.63;3.72;;;;;;;;;;2073012;28;20181;-52
2022/05/29 00:53:29;;;;;;;6.55;4.30;;;;;;;;;;2073398;28;20164;-53
2022/05/29 00:54:33;;;;;;;7.57;3.92;;;;;;;;;;2072497;28;20577;-55
2022/05/29 00:55:34;;;;;;;8.98;4.78;;;;;;;;;;2073669;28;20180;-54
2022/05/29 00:56:36;;;;;;;11.00;5.20;;;;;;;;;;2073432;28;20176;-55
2022/05/29 00:57:37;;;;;;;10.32;4.85;;;;;;;;;;2072892;28;20559;-54
2022/05/29 00:58:38;;;;;;;10.45;4.15;;;;;;;;;;2073311;28;20177;-53
2022/05/29 00:59:38;;;;;;;10.05;4.97;;;;;;;;;;2073365;28;20279;-52
2022/05/29 01:00:39;;;;;;;13.45;4.28;;;;;;;;;;2073152;28;20173;-55
2022/05/29 01:01:40;;;;;;;8.95;4.28;;;;;;;;;;2071524;28;20164;-55
2022/05/29 01:02:41;;;;;;;9.75;4.60;;;;;;;;;;2073085;28;20181;-57
2022/05/29 01:03:41;;;;;;;6.82;3.85;;;;;;;;;;2073402;28;20176;-54
2022/05/29 01:04:42;;;;;;;10.00;4.35;;;;;;;;;;2072099;28;20193;-53
2022/05/29 01:05:43;;;;;;;10.30;4.85;;;;;;;;;;2072893;28;20182;-61
2022/05/29 01:06:43;;;;;;;11.48;6.93;;;;;;;;;;2072828;28;20267;-59
2022/05/29 01:07:46;;;;;;;6.72;4.70;;;;;;;;;;2072560;28;20219;-56
2022/05/29 01:08:46;;;;;;;11.05;4.65;;;;;;;;;;2072980;28;20193;-56
2022/05/29 01:09:47;;;;;;;9.82;4.93;;;;;;;;;;2073104;28;20181;-56
2022/05/29 01:11:02;;;;;;;8.85;4.70;;;;;;;;;;2073499;28;20183;-54
2022/05/29 01:12:26;;;;;;;7.32;4.20;;;;;;;;;;2071397;28;20214;-55
2022/05/29 01:13:32;;;;;;;12.88;4.25;;;;;;;;;;2064256;28;20186;-54
2022/05/29 01:14:35;;;;;;;12.27;5.20;;;;;;;;;;2072113;28;20250;-57
2022/05/29 01:15:50;;;;;;;7.20;4.35;;;;;;;;;;2073191;28;20179;-55
2022/05/29 01:16:50;;;;;;;8.50;4.72;;;;;;;;;;2072939;28;20199;-57
2022/05/29 01:18:14;;;;;;;7.53;4.18;;;;;;;;;;2073256;28;20173;-55
2022/05/29 01:19:20;;;;;;;7.18;3.85;;;;;;;;;;2067835;28;20200;-54
2022/05/29 01:20:38;;;;;;;11.02;4.30;;;;;;;;;;2073053;28;20235;-56
2022/05/29 01:21:48;;;;;;;5.45;4.10;;;;;;;;;;2073385;28;20168;-57
2022/05/29 01:23:07;;;;;;;11.02;4.88;;;;;;;;;;2073095;28;20256;-56
2022/05/29 01:24:07;;;;;;;9.82;4.53;;;;;;;;;;2071778;28;20184;-59
2022/05/29 01:25:24;;;;;;;6.47;4.03;;;;;;;;;;2072331;28;20183;-55
2022/05/29 01:26:33;;;;;;;11.30;3.92;;;;;;;;;;2072493;28;20646;-56
2022/05/29 01:27:39;;;;;;;7.45;4.72;;;;;;;;;;2072615;28;20169;-56
2022/05/29 01:28:46;;;;;;;8.25;4.80;;;;;;;;;;2072418;28;20220;-50
2022/05/29 01:30:05;;;;;;;12.73;4.28;;;;;;;;;;2072717;28;20169;-55
2022/05/29 01:31:25;;;;;;;10.18;3.92;;;;;;;;;;2073151;28;20171;-55
2022/05/29 01:32:35;;;;;;;8.25;4.60;;;;;;;;;;2073317;28;20169;-54
2022/05/29 01:33:35;;;;;;;5.85;4.68;;;;;;;;;;2073174;28;20176;-51
2022/05/29 01:34:44;;;;;;;9.98;4.43;;;;;;;;;;2071982;28;20177;-55
2022/05/29 01:35:47;;;;;;;5.50;4.20;;;;;;;;;;2072623;28;20207;-57
2022/05/29 01:36:54;;;;;;;6.25;4.63;;;;;;;;;;2072462;28;20161;-52
2022/05/29 01:38:04;;;;;;;8.13;4.82;;;;;;;;;;2073227;28;20177;-52
2022/05/29 01:39:10;;;;;;;6.78;4.90;;;;;;;;;;2071117;28;20903;-52
2022/05/29 01:40:13;;;;;;;9.25;4.00;;;;;;;;;;2072900;28;20188;-53
2022/05/29 01:41:33;;;;;;;11.20;4.90;;;;;;;;;;2072896;28;20196;-59
2022/05/29 01:42:54;;;;;;;6.85;3.95;;;;;;;;;;2073235;28;20171;-57
2022/05/29 01:44:13;;;;;;;8.90;4.82;;;;;;;;;;2072832;28;20539;-54
2022/05/29 01:45:25;;;;;;;8.55;4.20;;;;;;;;;;2073219;28;20536;-56
2022/05/29 01:46:35;;;;;;;9.90;4.28;;;;;;;;;;2073466;28;20175;-54
2022/05/29 01:47:44;;;;;;;11.95;4.35;;;;;;;;;;2072533;28;20261;-63
2022/05/29 01:48:47;;;;;;;9.40;4.45;;;;;;;;;;2073482;28;20344;-56
2022/05/29 01:49:50;;;;;;;9.32;5.10;;;;;;;;;;2068950;28;20219;-53
2022/05/29 01:50:52;;;;;;;14.90;4.88;;;;;;;;;;2073020;28;20187;-53
2022/05/29 01:52:04;;;;;;;6.07;4.47;;;;;;;;;;2065058;28;20611;-55
2022/05/29 01:53:16;;;;;;;9.95;4.97;;;;;;;;;;2065076;28;20170;-53
2022/05/29 01:54:32;;;;;;;11.32;4.38;;;;;;;;;;2064018;28;20166;-54
2022/05/29 01:55:40;;;;;;;10.75;5.22;;;;;;;;;;2065148;28;20174;-59
2022/05/29 01:56:42;;;;;;;11.32;5.00;;;;;;;;;;2072106;28;20227;-56
2022/05/29 01:57:44;;;;;;;5.45;4.07;;;;;;;;;;2073233;28;20543;-56
2022/05/29 01:58:48;;;;;;;5.68;4.53;;;;;;;;;;2073213;28;20207;-54
2022/05/29 01:59:52;;;;;;;9.95;4.88;;;;;;;;;;2072855;28;20287;-54
2022/05/29 02:00:54;;;;;;;11.60;4.68;;;;;;;;;;2072957;28;20220;-53
2022/05/29 02:01:57;;;;;;;8.38;4.38;;;;;;;;;;2073233;28;20594;-54
2022/05/29 02:03:08;;;;;;;10.82;4.03;;;;;;;;;;2072933;28;20173;-57
2022/05/29 02:04:10;;;;;;;8.13;4.60;;;;;;;;;;2072140;28;20264;-55
2022/05/29 02:05:28;;;;;;;9.65;5.25;;;;;;;;;;2072925;28;20165;-57
2022/05/29 02:07:47;;;;;;;8.82;4.55;;;;;;;;;;2073044;28;20181;-52
2022/05/29 02:08:03;;;;;;;11.77;4.28;;;;;;;;;;2072811;28;20699;-56
2022/05/29 02:09:06;;;;;;;5.57;4.38;;;;;;;;;;2073370;28;20240;-56
2022/05/29 02:10:09;;;;;;;10.15;4.50;;;;;;;;;;2074429;28;20161;-54
2022/05/29 02:11:13;;;;;;;11.63;4.60;;;;;;;;;;2074578;28;20188;-54
2022/05/29 02:12:14;;;;;;;10.93;4.63;;;;;;;;;;2072603;28;20263;-55
2022/05/29 02:13:21;;;;;;;9.20;4.55;;;;;;;;;;2074655;28;20252;-55
2022/05/29 02:14:24;;;;;;;9.55;4.95;;;;;;;;;;2073668;28;20224;-54
2022/05/29 02:15:30;;;;;;;6.47;4.85;;;;;;;;;;2074417;28;20226;-57
2022/05/29 02:16:39;;;;;;;14.18;4.57;;;;;;;;;;2074420;28;20181;-56
2022/05/29 02:17:42;;;;;;;12.35;5.00;;;;;;;;;;2074327;28;20272;-58
2022/05/29 02:18:43;;;;;;;9.00;5.25;;;;;;;;;;2074211;28;20188;-54
2022/05/29 02:19:45;;;;;;;10.82;5.32;;;;;;;;;;2074076;28;20232;-57
2022/05/29 02:20:50;;;;;;;11.43;4.85;;;;;;;;;;2074261;28;20646;-55
2022/05/29 02:22:09;;;;;;;10.30;5.10;;;;;;;;;;2076654;28;20196;-55
2022/05/29 02:23:22;;;;;;;9.48;5.07;;;;;;;;;;2077934;28;20191;-55
2022/05/29 02:24:25;;;;;;;8.35;5.28;;;;;;;;;;2079985;28;20533;-56
2022/05/29 02:25:27;;;;;;;8.65;4.88;;;;;;;;;;2079601;28;20950;-59
2022/05/29 02:26:30;;;;;;;5.63;5.05;;;;;;;;;;2074436;28;20169;-57
2022/05/29 02:27:50;;;;;;;9.50;4.85;;;;;;;;;;2074346;28;20181;-55
2022/05/29 02:28:52;;;;;;;9.80;5.50;;;;;;;;;;2073990;28;20196;-54
2022/05/29 02:29:57;;;;;;;7.68;4.60;;;;;;;;;;2074513;28;20176;-50
2022/05/29 02:31:17;;;;;;;9.48;4.85;;;;;;;;;;2074166;28;20165;-55
2022/05/29 02:32:29;;;;;;;7.07;4.82;;;;;;;;;;2074493;28;20185;-52
2022/05/29 02:33:43;;;;;;;11.20;5.38;;;;;;;;;;2074054;28;20169;-52
2022/05/29 02:34:49;;;;;;;10.30;4.88;;;;;;;;;;2074050;28;20199;-54
2022/05/29 02:36:23;;;;;;;10.30;5.38;;;;;;;;;;2074898;28;20184;-56
2022/05/29 02:37:23;;;;;;;9.40;4.82;;;;;;;;;;2080127;28;20164;-50
2022/05/29 02:38:34;;;;;;;10.10;5.57;;;;;;;;;;2083227;28;20682;-53
2022/05/29 02:39:41;;;;;;;8.98;6.20;;;;;;;;;;2082820;28;20188;-55
2022/05/29 02:40:44;;;;;;;8.10;5.22;;;;;;;;;;2079258;28;20180;-53
2022/05/29 02:41:48;;;;;;;10.13;5.55;;;;;;;;;;2074540;28;20184;-51
2022/05/29 02:42:54;;;;;;;7.85;5.43;;;;;;;;;;2074564;28;20172;-54
2022/05/29 02:44:02;;;;;;;12.38;5.40;;;;;;;;;;2074236;28;20212;-51
2022/05/29 02:45:13;;;;;;;10.05;5.32;;;;;;;;;;2074516;28;20149;-54
2022/05/29 02:46:28;;;;;;;12.23;5.60;;;;;;;;;;2073760;28;20177;-51
2022/05/29 02:47:36;;;;;;;13.13;5.00;;;;;;;;;;2070053;28;20743;-51
2022/05/29 02:48:54;;;;;;;8.82;4.95;;;;;;;;;;2073811;28;20255;-54
2022/05/29 02:50:03;;;;;;;9.15;5.55;;;;;;;;;;2074012;28;20184;-53
2022/05/29 02:51:24;;;;;;;7.68;5.50;;;;;;;;;;2074369;28;20169;-53
2022/05/29 02:52:24;;;;;;;7.57;5.32;;;;;;;;;;2074335;28;20177;-49
2022/05/29 02:53:25;;;;;;;14.95;5.82;;;;;;;;;;2074062;28;20175;-50
2022/05/29 02:54:26;;;;;;;16.35;6.22;;;;;;;;;;2073219;28;20181;-53
2022/05/29 02:55:27;;;;;;;8.20;5.78;;;;;;;;;;2074219;28;20173;-51
2022/05/29 02:56:27;;;;;;;7.53;6.03;;;;;;;;;;2073232;28;20173;-52
2022/05/29 02:57:27;;;;;;;8.77;6.43;;;;;;;;;;2073692;28;20199;-52
2022/05/29 02:58:29;;;;;;;15.93;5.78;;;;;;;;;;2073936;28;20205;-50
2022/05/29 02:59:50;;;;;;;11.13;6.70;;;;;;;;;;2074093;28;20678;-53
2022/05/29 03:01:06;;;;;;;11.00;6.32;;;;;;;;;;2073827;28;20173;-53
2022/05/29 03:02:12;;;;;;;12.10;6.40;;;;;;;;;;2073258;28;20243;-52
2022/05/29 03:03:21;;;;;;;11.18;5.93;;;;;;;;;;2073516;28;20208;-53
2022/05/29 03:04:29;;;;;;;13.10;6.85;;;;;;;;;;2072924;28;20638;-52
2022/05/29 03:05:32;;;;;;;11.15;6.25;;;;;;;;;;2074096;28;20176;-55
2022/05/29 03:06:52;;;;;;;13.43;6.20;;;;;;;;;;2072872;28;20161;-55
2022/05/29 03:07:58;;;;;;;10.30;6.47;;;;;;;;;;2073792;28;20184;-53
2022/05/29 03:09:06;;;;;;;8.90;6.05;;;;;;;;;;2073422;28;20185;-55
2022/05/29 03:10:18;;;;;;;12.10;6.15;;;;;;;;;;2073536;28;20184;-54
2022/05/29 03:11:47;;;;;;;9.77;6.25;;;;;;;;;;2073920;28;20649;-51
2022/05/29 03:13:02;;;;;;;11.27;5.88;;;;;;;;;;2073062;28;20207;-55
2022/05/29 03:14:10;;;;;;;10.85;6.00;;;;;;;;;;2072524;28;20242;-54
2022/05/29 03:15:14;;;;;;;10.95;5.93;;;;;;;;;;2073112;28;20673;-55
2022/05/29 03:16:34;;;;;;;9.75;6.25;;;;;;;;;;2073983;28;20177;-55
2022/05/29 03:17:45;;;;;;;10.80;5.80;;;;;;;;;;2048805;29;20186;-55
2022/05/29 03:18:50;;;;;;;12.38;5.93;;;;;;;;;;2071617;28;20204;-54
2022/05/29 03:19:57;;;;;;;11.38;6.07;;;;;;;;;;2073329;28;20189;-58
2022/05/29 03:21:07;;;;;;;10.77;6.78;;;;;;;;;;2065834;28;20225;-54
2022/05/29 03:22:13;;;;;;;10.43;6.13;;;;;;;;;;2072295;28;20668;-58
2022/05/29 03:23:22;;;;;;;12.93;6.25;;;;;;;;;;2074064;28;20223;-52
2022/05/29 03:24:25;;;;;;;11.60;5.97;;;;;;;;;;2073024;28;20173;-53
2022/05/29 03:25:30;;;;;;;8.60;5.80;;;;;;;;;;2073636;28;20172;-54
2022/05/29 03:26:45;;;;;;;11.63;5.47;;;;;;;;;;2073814;28;20268;-51
2022/05/29 03:27:50;;;;;;;10.75;6.05;;;;;;;;;;2074005;28;20649;-58
2022/05/29 03:28:53;;;;;;;10.43;5.78;;;;;;;;;;2073721;28;20220;-53
2022/05/29 03:29:53;;;;;;;11.35;5.88;;;;;;;;;;2073400;28;20161;-53
2022/05/29 03:30:54;;;;;;;8.48;5.57;;;;;;;;;;2072585;28;20259;-55
2022/05/29 03:31:55;;;;;;;11.68;6.63;;;;;;;;;;2073254;28;20188;-51
2022/05/29 03:32:57;;;;;;;9.35;6.00;;;;;;;;;;2073287;28;20531;-53
2022/05/29 03:33:57;;;;;;;9.75;5.65;;;;;;;;;;2072899;28;20231;-56
2022/05/29 03:34:58;;;;;;;9.80;5.22;;;;;;;;;;2064719;28;20781;-54
2022/05/29 03:35:58;;;;;;;9.73;6.10;;;;;;;;;;2073163;28;20197;-55
2022/05/29 03:36:58;;;;;;;10.65;6.25;;;;;;;;;;2075603;28;20177;-57
2022/05/29 03:37:59;;;;;;;13.23;5.88;;;;;;;;;;2082012;28;20542;-53
2022/05/29 03:39:00;;;;;;;10.32;6.10;;;;;;;;;;2081841;28;20549;-57
2022/05/29 03:40:00;;;;;;;13.95;6.38;;;;;;;;;;2081373;28;20766;-55
2022/05/29 03:41:10;;;;;;;9.75;6.35;;;;;;;;;;2081298;28;20596;-55
2022/05/29 03:42:10;;;;;;;14.30;6.18;;;;;;;;;;2075977;28;20161;-54
2022/05/29 03:43:11;;;;;;;14.57;6.43;;;;;;;;;;2073786;28;20638;-53
2022/05/29 03:44:12;;;;;;;11.93;6.50;;;;;;;;;;2072916;28;20211;-52
2022/05/29 03:45:12;;;;;;;9.57;6.53;;;;;;;;;;2073695;28;20253;-56
2022/05/29 03:46:13;;;;;;;9.38;6.25;;;;;;;;;;2073477;28;20191;-53
2022/05/29 03:47:13;;;;;;;10.90;6.18;;;;;;;;;;2070652;28;20169;-55
2022/05/29 03:48:13;;;;;;;15.27;6.32;;;;;;;;;;2065700;28;20169;-54
2022/05/29 03:49:15;;;;;;;13.10;6.75;;;;;;;;;;2065540;28;20256;-51
2022/05/29 03:50:17;;;;;;;9.20;5.88;;;;;;;;;;2078791;28;20175;-56
2022/05/29 03:51:17;;;;;;;15.38;7.22;;;;;;;;;;2074497;28;20177;-54
2022/05/29 03:52:18;;;;;;;11.32;6.55;;;;;;;;;;2073863;28;20596;-52
2022/05/29 03:53:18;;;;;;;10.88;6.22;;;;;;;;;;2073790;28;20560;-52
2022/05/29 03:54:18;;;;;;;10.35;6.38;;;;;;;;;;2072781;28;20719;-54
2022/05/29 03:55:20;;;;;;;12.60;6.68;;;;;;;;;;2073740;28;20173;-52
2022/05/29 03:56:20;;;;;;;7.82;5.95;;;;;;;;;;2073458;28;20670;-51
2022/05/29 03:57:21;;;;;;;10.10;6.50;;;;;;;;;;2073828;28;20161;-55
2022/05/29 03:58:21;;;;;;;10.50;6.47;;;;;;;;;;2072993;28;20185;-54
2022/05/29 03:59:21;;;;;;;12.30;6.70;;;;;;;;;;2073044;28;20262;-53
2022/05/29 04:00:22;;;;;;;10.65;7.47;;;;;;;;;;2073395;28;20219;-56
2022/05/29 04:01:23;;;;;;;11.10;6.85;;;;;;;;;;2073773;28;20181;-51
2022/05/29 04:02:23;;;;;;;13.13;7.20;;;;;;;;;;2073746;28;20196;-54
2022/05/29 04:03:24;;;;;;;14.98;6.57;;;;;;;;;;2073926;28;20181;-58
2022/05/29 04:04:24;;;;;;;10.70;6.93;;;;;;;;;;2072705;28;20161;-57
2022/05/29 04:05:25;;;;;;;10.23;6.93;;;;;;;;;;2073735;28;20180;-52
2022/05/29 04:06:26;;;;;;;13.45;6.70;;;;;;;;;;2073249;28;20184;-52
2022/05/29 04:12:41;;;;;;;11.30;6.85;;;;;;;;;;2071034;28;20173;-54
2022/05/29 04:13:43;;;;;;;10.50;6.75;;;;;;;;;;2072984;28;20243;-53
2022/05/29 04:14:44;;;;;;;9.85;6.22;;;;;;;;;;2072362;28;20219;-54
2022/05/29 04:15:47;;;;;;;14.32;6.93;;;;;;;;;;2073665;28;20747;-50
2022/05/29 04:16:47;;;;;;;11.18;7.13;;;;;;;;;;2073506;28;20173;-53
2022/05/29 04:17:48;;;;;;;11.57;6.20;;;;;;;;;;2072762;28;20176;-53
2022/05/29 04:18:48;;;;;;;13.10;6.72;;;;;;;;;;2072642;28;20197;-56
2022/05/29 04:19:48;;;;;;;10.07;6.82;;;;;;;;;;2073521;28;20251;-55
2022/05/29 04:20:49;;;;;;;9.48;6.22;;;;;;;;;;2073451;28;20161;-57
2022/05/29 04:21:51;;;;;;;8.13;6.63;;;;;;;;;;2075428;28;20188;-56
2022/05/29 04:22:51;;;;;;;10.70;6.57;;;;;;;;;;2079397;28;20164;-55
2022/05/29 04:23:52;;;;;;;11.65;7.93;;;;;;;;;;2074261;28;20187;-54
2022/05/29 04:24:52;;;;;;;13.27;7.32;;;;;;;;;;2073005;28;20171;-55
2022/05/29 04:25:52;;;;;;;13.50;7.25;;;;;;;;;;2072887;28;20662;-53
2022/05/29 04:26:52;;;;;;;15.13;7.20;;;;;;;;;;2072916;28;20540;-53
2022/05/29 04:27:53;;;;;;;10.68;7.20;;;;;;;;;;2073322;28;20587;-56
2022/05/29 04:29:57;;;;;;;12.07;5.90;;;;;;;;;;2066720;28;20231;-56
2022/05/29 04:30:57;;;;;;;10.52;7.15;;;;;;;;;;2073234;28;20173;-53
2022/05/29 04:33:16;;;;;;;12.98;7.88;;;;;;;;;;2072996;28;20163;-51
2022/05/29 04:34:17;;;;;;;10.20;7.22;;;;;;;;;;2070305;28;20207;-52
2022/05/29 04:35:17;;;;;;;14.98;7.60;;;;;;;;;;2073599;28;20204;-53
2022/05/29 04:36:17;;;;;;;11.57;7.00;;;;;;;;;;2073175;28;20665;-54
2022/05/29 04:37:17;;;;;;;9.23;7.32;;;;;;;;;;2072877;28;20596;-57
2022/05/29 04:38:19;;;;;;;11.32;7.43;;;;;;;;;;2070970;28;20195;-56
2022/05/29 04:39:20;;;;;;;9.93;7.30;;;;;;;;;;2073001;28;20691;-55
2022/05/29 04:40:20;;;;;;;11.00;6.88;;;;;;;;;;2073684;28;20260;-56
2022/05/29 04:41:25;;;;;;;8.80;7.22;;;;;;;;;;2073548;28;20185;-55
2022/05/29 04:42:25;;;;;;;12.30;7.28;;;;;;;;;;2073650;28;20165;-52
2022/05/29 04:43:25;;;;;;;16.42;8.18;;;;;;;;;;2073787;28;20315;-54
2022/05/29 04:44:26;;;;;;;17.45;7.82;;;;;;;;;;2069872;28;20169;-54
2022/05/29 04:45:27;;;;;;;10.88;7.47;;;;;;;;;;2073751;28;20176;-50
2022/05/29 04:46:27;;;;;;;11.13;7.15;;;;;;;;;;2070327;28;20185;-52
2022/05/29 04:47:28;;;;;;;11.65;6.95;;;;;;;;;;2067796;28;20158;-54
2022/05/29 04:48:28;;;;;;;11.30;7.45;;;;;;;;;;2072455;28;20181;-55
2022/05/29 04:49:29;;;;;;;12.98;7.40;;;;;;;;;;2073192;28;20219;-53
2022/05/29 04:50:30;;;;;;;10.82;7.75;;;;;;;;;;2073145;28;20587;-53
2022/05/29 04:51:30;;;;;;;9.25;7.47;;;;;;;;;;2073716;28;20188;-52
2022/05/29 04:52:30;;;;;;;11.63;7.32;;;;;;;;;;2073437;28;20204;-52
2022/05/29 04:53:31;;;;;;;10.70;6.90;;;;;;;;;;2073042;28;20212;-54
2022/05/29 04:54:32;;;;;;;11.60;6.82;;;;;;;;;;2071661;28;20540;-56
2022/05/29 04:55:32;;;;;;;15.40;6.97;;;;;;;;;;2073942;28;20169;-51
2022/05/29 04:56:33;;;;;;;14.95;7.60;;;;;;;;;;2073891;28;20184;-58
2022/05/29 04:57:33;;;;;;;12.07;7.75;;;;;;;;;;2073238;28;20176;-54
2022/05/29 04:58:33;;;;;;;12.32;7.18;;;;;;;;;;2073101;28;20169;-57
2022/05/29 04:59:34;;;;;;;11.00;7.55;;;;;;;;;;2073333;28;20185;-52
2022/05/29 05:00:34;;;;;;;12.30;7.47;;;;;;;;;;2073263;28;20173;-54
2022/05/29 05:01:35;;;;;;;11.05;7.30;;;;;;;;;;2072943;28;20591;-54
2022/05/29 05:02:35;;;;;;;12.35;7.45;;;;;;;;;;2072947;28;20207;-57
2022/05/29 05:03:36;;;;;;;10.60;7.22;;;;;;;;;;2070819;28;20176;-56
2022/05/29 05:04:36;;;;;;;12.40;6.80;;;;;;;;;;2072135;28;20172;-55
2022/05/29 05:05:36;;;;;;;9.52;7.05;;;;;;;;;;2080891;28;20191;-50
2022/05/29 05:06:37;;;;;;;9.70;6.88;;;;;;;;;;2073825;28;20173;-53
2022/05/29 05:07:37;;;;;;;11.85;6.78;;;;;;;;;;2072180;28;20621;-54
2022/05/29 05:08:37;;;;;;;11.80;7.50;;;;;;;;;;2072848;28;20543;-55
2022/05/29 05:09:37;;;;;;;10.98;6.78;;;;;;;;;;2073282;28;20193;-51
2022/05/29 05:10:39;;;;;;;11.77;7.38;;;;;;;;;;2073650;28;20177;-56
2022/05/29 05:11:39;;;;;;;13.10;7.35;;;;;;;;;;2072838;28;20255;-51
2022/05/29 05:12:39;;;;;;;9.18;7.32;;;;;;;;;;2072789;28;20176;-52
2022/05/29 05:13:40;;;;;;;11.43;6.78;;;;;;;;;;2073301;28;20189;-55
2022/05/29 05:14:40;;;;;;;10.10;6.40;;;;;;;;;;2071739;28;20223;-57
2022/05/29 05:15:41;;;;;;;16.50;7.72;;;;;;;;;;2072662;28;20180;-54
2022/05/29 05:16:41;;;;;;;10.27;6.78;;;;;;;;;;2072833;28;20655;-58
2022/05/29 05:17:42;;;;;;;11.52;7.10;;;;;;;;;;2064548;28;20185;-51
2022/05/29 05:18:42;;;;;;;12.77;7.38;;;;;;;;;;2072916;28;20579;-51
2022/05/29 05:19:42;;;;;;;9.40;7.22;;;;;;;;;;2073251;28;20673;-55
2022/05/29 05:20:42;;;;;;;8.35;6.95;;;;;;;;;;2073452;28;20181;-52
2022/05/29 05:21:43;;;;;;;10.80;7.20;;;;;;;;;;2073259;28;20165;-55
2022/05/29 05:22:43;;;;;;;11.23;6.53;;;;;;;;;;2073462;28;20181;-52
2022/05/29 05:23:44;;;;;;;11.68;6.88;;;;;;;;;;2072520;28;20165;-53
2022/05/29 05:24:44;;;;;;;8.93;6.47;;;;;;;;;;2071762;28;20736;-53
2022/05/29 05:25:44;;;;;;;17.60;7.55;;;;;;;;;;2073518;28;20514;-52
2022/05/29 05:26:45;;;;;;;10.00;6.45;;;;;;;;;;2072983;28;20630;-52
2022/05/29 05:27:45;;;;;;;12.23;6.90;;;;;;;;;;2064912;28;20683;-54
2022/05/29 05:28:46;;;;;;;13.48;7.53;;;;;;;;;;2073980;28;20161;-54
2022/05/29 05:29:46;;;;;;;9.90;6.60;;;;;;;;;;2076745;28;20216;-51
2022/05/29 05:30:47;;;;;;;10.70;6.45;;;;;;;;;;2077571;28;20208;-57
2022/05/29 05:31:47;;;;;;;13.25;6.70;;;;;;;;;;2076316;28;20180;-59
2022/05/29 05:32:47;;;;;;;12.98;7.38;;;;;;;;;;2075474;28;20181;-57
2022/05/29 05:33:48;;;;;;;9.30;7.03;;;;;;;;;;2075039;28;20189;-56
2022/05/29 05:34:48;;;;;;;9.93;6.72;;;;;;;;;;2073443;28;20197;-58
2022/05/29 05:35:48;;;;;;;9.73;6.22;;;;;;;;;;2074345;28;20184;-55
2022/05/29 05:36:49;;;;;;;10.77;6.75;;;;;;;;;;2074640;28;20256;-54
2022/05/29 05:37:49;;;;;;;9.48;6.20;;;;;;;;;;2071735;28;20173;-55
2022/05/29 05:38:51;;;;;;;12.98;7.35;;;;;;;;;;2074477;28;20542;-53
2022/05/29 05:39:51;;;;;;;13.63;7.03;;;;;;;;;;2074260;28;20255;-53
2022/05/29 05:40:51;;;;;;;10.45;6.72;;;;;;;;;;2068037;28;20766;-54
2022/05/29 05:41:52;;;;;;;9.45;7.00;;;;;;;;;;2073664;28;20190;-55
2022/05/29 05:42:52;;;;;;;8.93;6.93;;;;;;;;;;2073239;28;20537;-52
2022/05/29 05:43:52;;;;;;;9.27;7.35;;;;;;;;;;2072621;28;20165;-57
2022/05/29 05:44:52;;;;;;;13.80;7.90;;;;;;;;;;2073948;28;20192;-51
2022/05/29 05:45:53;;;;;;;16.27;8.00;;;;;;;;;;2075145;28;20176;-50
2022/05/29 05:46:53;;;;;;;21.63;8.13;;;;;;;;;;2074781;28;20175;-50
2022/05/29 05:47:55;;;;;;;16.88;8.05;;;;;;;;;;2074893;28;20731;-55
2022/05/29 05:48:55;;;;;;;17.55;9.38;;;;;;;;;;2074844;28;20162;-53
2022/05/29 05:49:55;;;;;;;13.32;8.45;;;;;;;;;;2075072;28;20204;-53
2022/05/29 05:50:57;;;;;;;13.55;7.85;;;;;;;;;;2074894;28;20575;-51
2022/05/29 05:51:58;;;;;;;12.20;7.60;;;;;;;;;;2074882;28;20173;-52
2022/05/29 05:52:58;;;;;;;12.32;7.78;;;;;;;;;;2074749;28;20177;-55
2022/05/29 05:53:59;;;;;;;10.77;8.02;;;;;;;;;;2074208;28;20536;-55
2022/05/29 05:54:59;;;;;;;14.25;8.27;;;;;;;;;;2074536;28;20187;-53
2022/05/29 05:56:03;;;;;;;14.63;8.75;;;;;;;;;;2074765;28;20165;-51
2022/05/29 05:57:06;;;;;;;10.65;7.55;;;;;;;;;;2074026;28;20485;-57
2022/05/29 05:58:06;;;;;;;11.85;8.75;;;;;;;;;;2074048;28;20196;-53
2022/05/29 05:59:07;;;;;;;11.15;7.75;;;;;;;;;;2073631;28;20645;-55
2022/05/29 06:00:09;;;;;;;11.02;8.18;;;;;;;;;;2065983;28;20227;-55
2022/05/29 06:01:12;;;;;;;12.55;8.02;;;;;;;;;;2074130;28;20207;-56
2022/05/29 06:02:13;;;;;;;13.10;7.82;;;;;;;;;;2074574;28;20544;-55
2022/05/29 06:03:13;;;;;;;14.70;7.85;;;;;;;;;;2074765;28;20177;-56
2022/05/29 06:04:14;;;;;;;12.90;7.50;;;;;;;;;;2073022;28;20195;-54
2022/05/29 06:05:14;;;;;;;10.63;7.50;;;;;;;;;;2074092;28;20181;-51
2022/05/29 06:06:15;;;;;;;12.32;8.65;;;;;;;;;;2074933;28;20172;-52
2022/05/29 06:07:15;;;;;;;12.82;7.38;;;;;;;;;;2074566;28;20193;-53
2022/05/29 06:08:15;;;;;;;14.55;7.65;;;;;;;;;;2074639;28;20252;-57
2022/05/29 06:09:17;;;;;;;11.02;7.43;;;;;;;;;;2074568;28;20697;-54
2022/05/29 06:10:18;;;;;;;10.13;7.38;;;;;;;;;;2074754;28;20192;-54
2022/05/29 06:11:18;;;;;;;11.90;8.38;;;;;;;;;;2074775;28;20212;-54
2022/05/29 06:12:21;;;;;;;12.27;8.18;;;;;;;;;;2074870;28;20189;-54
2022/05/29 06:13:21;;;;;;;14.60;7.95;;;;;;;;;;2074432;28;20169;-51
2022/05/29 06:14:21;;;;;;;14.32;8.05;;;;;;;;;;2073878;28;20207;-51
2022/05/29 06:15:22;;;;;;;15.80;7.57;;;;;;;;;;2074559;28;20185;-55
2022/05/29 06:16:22;;;;;;;10.43;7.63;;;;;;;;;;2074681;28;20177;-57
2022/05/29 06:17:22;;;;;;;14.10;8.10;;;;;;;;;;2074900;28;20176;-53
2022/05/29 06:18:22;;;;;;;12.68;7.70;;;;;;;;;;2073790;28;20176;-53
2022/05/29 06:19:23;;;;;;;14.80;8.70;;;;;;;;;;2073864;28;20787;-50
2022/05/29 06:20:24;;;;;;;13.18;8.18;;;;;;;;;;2074507;28;20537;-55
2022/05/29 06:21:24;;;;;;;13.70;7.97;;;;;;;;;;2074629;28;20251;-53
2022/05/29 06:22:25;;;;;;;13.50;7.80;;;;;;;;;;2074661;28;20247;-54
2022/05/29 06:23:25;;;;;;;15.68;7.97;;;;;;;;;;2074511;28;20168;-52
2022/05/29 06:24:25;;;;;;;9.60;7.70;;;;;;;;;;2073851;28;20184;-53
2022/05/29 06:25:26;;;;;;;13.18;7.82;;;;;;;;;;2074706;28;20536;-51